createdAt,value
2019-02-08T00:00:26.790Z,2.06
2019-02-08T00:02:55.459Z,2.09
2019-02-08T00:05:24.244Z,2.08
2019-02-08T00:07:53.295Z,2.05
2019-02-08T00:10:22.102Z,2.12
2019-02-08T00:12:50.797Z,2.13
2019-02-08T00:15:22.171Z,2.16
2019-02-08T00:17:50.886Z,2.21
2019-02-08T00:20:21.647Z,2.24
2019-02-08T00:22:50.469Z,2.24
2019-02-08T00:25:23.388Z,2.29
2019-02-08T00:27:52.189Z,2.27
2019-02-08T00:30:23.484Z,2.37
2019-02-08T00:32:52.334Z,2.35
2019-02-08T00:35:21.067Z,2.39
2019-02-08T00:37:50.327Z,2.37
2019-02-08T00:40:21.577Z,2.31
2019-02-08T00:42:50.224Z,2.46
2019-02-08T00:45:20.322Z,2.46
2019-02-08T00:47:49.129Z,2.47
2019-02-08T00:50:25.863Z,2.46
2019-02-08T00:52:54.513Z,2.41
2019-02-08T00:55:23.199Z,2.42
2019-02-08T00:57:51.849Z,2.45
2019-02-08T01:00:21.028Z,2.54
2019-02-08T01:02:50.705Z,2.54
2019-02-08T01:05:23.117Z,2.51
2019-02-08T01:07:52.584Z,2.51
2019-02-08T01:10:29.442Z,2.54
2019-02-08T01:12:58.513Z,2.54
2019-02-08T01:15:28.368Z,2.46
2019-02-08T01:17:57.118Z,2.45
2019-02-08T01:20:26.371Z,2.46
2019-02-08T01:22:55.183Z,2.50
2019-02-08T01:25:28.826Z,2.37
2019-02-08T01:27:57.517Z,2.34
2019-02-08T01:30:33.609Z,2.54
2019-02-08T01:33:02.282Z,2.59
2019-02-08T01:35:30.932Z,2.54
2019-02-08T01:38:00.658Z,2.52
2019-02-08T01:40:37.179Z,2.42
2019-02-08T01:43:07.403Z,2.36
2019-02-08T01:45:36.066Z,2.28
2019-02-08T01:48:07.082Z,2.51
2019-02-08T01:50:35.774Z,2.58
2019-02-08T01:53:04.918Z,2.56
2019-02-08T01:55:33.598Z,2.57
2019-02-08T01:58:02.231Z,2.29
2019-02-08T02:00:33.013Z,2.23
2019-02-08T02:03:02.567Z,2.01
2019-02-08T02:05:31.254Z,1.99
2019-02-08T02:07:59.892Z,1.85
2019-02-08T02:10:32.944Z,2.07
2019-02-08T02:13:01.572Z,2.05
2019-02-08T02:15:30.252Z,2.03
2019-02-08T02:17:58.892Z,2.03
2019-02-08T02:20:33.436Z,2.37
2019-02-08T02:23:02.070Z,2.32
2019-02-08T02:25:30.703Z,2.06
2019-02-08T02:27:59.383Z,1.92
2019-02-08T02:30:31.156Z,1.89
2019-02-08T02:32:59.822Z,2.00
2019-02-08T02:35:28.455Z,1.94
2019-02-08T02:37:57.139Z,1.90
2019-02-08T02:40:25.783Z,1.91
2019-02-08T02:42:54.483Z,2.11
2019-02-08T02:45:31.614Z,2.04
2019-02-08T02:48:00.307Z,1.94
2019-02-08T02:50:28.950Z,1.94
2019-02-08T02:52:57.637Z,1.95
2019-02-08T02:55:28.271Z,1.96
2019-02-08T02:57:56.903Z,1.94
2019-02-08T03:00:40.566Z,1.94
2019-02-08T03:03:09.205Z,2.04
2019-02-08T03:05:37.882Z,2.04
2019-02-08T03:08:08.780Z,1.90
2019-02-08T03:10:37.446Z,1.93
2019-02-08T03:13:06.176Z,1.85
2019-02-08T03:15:34.847Z,2.05
2019-02-08T03:18:03.469Z,2.00
2019-02-08T03:20:32.132Z,1.63
2019-02-08T03:23:00.770Z,1.53
2019-02-08T03:25:29.893Z,1.55
2019-02-08T03:27:58.589Z,1.73
2019-02-08T03:30:32.802Z,1.67
2019-02-08T03:33:01.442Z,1.54
2019-02-08T03:35:30.080Z,1.65
2019-02-08T03:37:58.752Z,1.55
2019-02-08T03:40:29.645Z,1.48
2019-02-08T03:42:58.331Z,1.50
2019-02-08T03:45:28.543Z,1.54
2019-02-08T03:47:57.237Z,1.51
2019-02-08T03:50:25.868Z,1.41
2019-02-08T03:52:55.044Z,1.36
2019-02-08T03:55:24.300Z,1.31
2019-02-08T03:57:52.977Z,1.44
2019-02-08T04:00:29.156Z,1.53
2019-02-08T04:02:57.932Z,1.49
2019-02-08T04:05:26.567Z,1.35
2019-02-08T04:07:55.702Z,1.32
2019-02-08T04:10:24.370Z,1.27
2019-02-08T04:12:52.992Z,0.92
2019-02-08T04:15:24.315Z,0.88
2019-02-08T04:17:52.961Z,0.73
2019-02-08T04:20:27.807Z,1.15
2019-02-08T04:22:56.636Z,1.16
2019-02-08T04:25:25.924Z,0.86
2019-02-08T04:27:54.944Z,0.94
2019-02-08T04:30:26.185Z,0.91
2019-02-08T04:32:54.809Z,0.98
2019-02-08T04:35:23.530Z,1.05
2019-02-08T04:37:52.146Z,1.02
2019-02-08T04:40:22.294Z,0.96
2019-02-08T04:42:51.014Z,0.80
2019-02-08T04:45:19.747Z,0.92
2019-02-08T04:47:48.416Z,1.08
2019-02-08T04:50:24.700Z,1.16
2019-02-08T04:52:53.362Z,1.11
2019-02-08T04:55:22.000Z,1.04
2019-02-08T04:57:50.694Z,1.04
2019-02-08T05:00:25.402Z,1.06
2019-02-08T05:02:54.132Z,0.98
2019-02-08T05:05:22.789Z,0.90
2019-02-08T05:07:51.471Z,1.06
2019-02-08T05:10:23.071Z,1.10
2019-02-08T05:12:51.703Z,1.06
2019-02-08T05:15:20.404Z,1.08
2019-02-08T05:17:49.157Z,1.10
2019-02-08T05:20:20.398Z,1.19
2019-02-08T05:22:49.041Z,1.33
2019-02-08T05:25:17.867Z,1.40
2019-02-08T05:27:46.516Z,1.41
2019-02-08T05:30:20.800Z,1.27
2019-02-08T05:32:49.528Z,1.02
2019-02-08T05:35:18.231Z,1.06
2019-02-08T05:37:46.867Z,1.16
2019-02-08T05:40:17.893Z,1.08
2019-02-08T05:42:46.586Z,0.99
2019-02-08T05:45:20.960Z,0.93
2019-02-08T05:47:49.783Z,0.88
2019-02-08T05:50:26.663Z,1.02
2019-02-08T05:52:55.442Z,0.96
2019-02-08T05:55:31.468Z,0.89
2019-02-08T05:58:00.145Z,0.84
2019-02-08T06:00:32.345Z,0.64
2019-02-08T06:03:01.023Z,0.44
2019-02-08T06:05:29.655Z,0.38
2019-02-08T06:07:58.368Z,0.45
2019-02-08T06:10:27.003Z,0.42
2019-02-08T06:12:55.653Z,0.53
2019-02-08T06:15:25.590Z,0.61
2019-02-08T06:17:54.264Z,0.63
2019-02-08T06:20:24.627Z,0.43
2019-02-08T06:22:53.261Z,0.44
2019-02-08T06:25:22.729Z,0.49
2019-02-08T06:27:51.361Z,0.26
2019-02-08T06:30:25.603Z,0.13
2019-02-08T06:32:54.258Z,0.12
2019-02-08T06:35:24.337Z,-0.02
2019-02-08T06:37:52.981Z,-0.14
2019-02-08T06:40:23.903Z,-0.22
2019-02-08T06:42:52.547Z,-0.23
2019-02-08T06:45:23.640Z,-0.20
2019-02-08T06:47:52.282Z,-0.12
2019-02-08T06:50:23.086Z,-0.36
2019-02-08T06:52:51.746Z,-0.53
2019-02-08T06:55:20.407Z,-0.49
2019-02-08T06:58:08.962Z,-0.33
2019-02-08T07:00:48.348Z,-0.29
2019-02-08T07:03:24.586Z,-0.27
2019-02-08T07:05:57.908Z,-0.17
2019-02-08T07:08:31.102Z,-0.13
2019-02-08T07:11:07.332Z,-0.09
2019-02-08T07:13:53.964Z,-0.27
2019-02-08T07:16:27.022Z,-0.33
2019-02-08T07:18:57.312Z,-0.28
2019-02-08T07:21:33.602Z,-0.23
2019-02-08T07:24:20.007Z,-0.19
2019-02-08T07:27:08.739Z,-0.08
2019-02-08T07:29:54.032Z,0.06
2019-02-08T07:32:27.107Z,0.29
2019-02-08T07:35:15.408Z,0.53
2019-02-08T07:37:45.683Z,0.74
2019-02-08T07:40:27.422Z,1.11
2019-02-08T07:43:03.426Z,1.17
2019-02-08T07:45:50.248Z,1.08
2019-02-08T07:48:20.502Z,1.14
2019-02-08T07:50:53.717Z,1.16
2019-02-08T07:53:30.062Z,1.33
2019-02-08T07:56:03.262Z,1.51
2019-02-08T07:58:33.633Z,1.44
2019-02-08T08:01:03.853Z,1.53
2019-02-08T08:03:49.328Z,1.55
2019-02-08T08:06:25.359Z,1.62
2019-02-08T08:09:01.396Z,1.71
2019-02-08T08:11:34.667Z,1.60
2019-02-08T08:14:11.100Z,1.58
2019-02-08T08:16:58.022Z,1.78
2019-02-08T08:19:40.333Z,1.83
2019-02-08T08:22:22.608Z,1.94
2019-02-08T08:24:52.925Z,2.28
2019-02-08T08:27:23.141Z,2.62
2019-02-08T08:29:53.346Z,2.84
2019-02-08T08:32:24.291Z,3.10
2019-02-08T08:35:08.044Z,3.30
2019-02-08T08:37:42.507Z,3.50
2019-02-08T08:40:29.146Z,3.50
2019-02-08T08:43:13.011Z,3.39
2019-02-08T08:45:53.526Z,3.51
2019-02-08T08:48:33.640Z,3.43
2019-02-08T08:51:11.586Z,3.50
2019-02-08T08:53:49.380Z,3.60
2019-02-08T08:56:21.182Z,3.64
2019-02-08T08:59:08.236Z,3.90
2019-02-08T09:01:58.180Z,4.21
2019-02-08T09:04:52.581Z,4.39
2019-02-08T09:07:25.223Z,4.51
2019-02-08T09:10:16.197Z,4.67
2019-02-08T09:13:17.705Z,4.88
2019-02-08T09:15:58.269Z,5.42
2019-02-08T09:18:38.935Z,6.18
2019-02-08T09:21:30.208Z,7.08
2019-02-08T09:24:04.657Z,7.70
2019-02-08T09:26:56.752Z,8.04
2019-02-08T09:29:31.225Z,8.41
2019-02-08T09:32:19.495Z,8.68
2019-02-08T09:35:03.305Z,8.44
2019-02-08T09:38:08.466Z,8.38
2019-02-08T09:41:04.265Z,8.42
2019-02-08T09:43:57.270Z,9.24
2019-02-08T09:46:38.285Z,8.56
2019-02-08T09:49:25.315Z,8.55
2019-02-08T09:52:18.411Z,8.41
2019-02-08T09:54:59.411Z,8.40
2019-02-08T09:57:31.215Z,8.65
2019-02-08T10:00:19.349Z,8.92
2019-02-08T10:03:09.586Z,9.83
2019-02-08T10:06:10.165Z,9.90
2019-02-08T10:08:41.966Z,9.21
2019-02-08T10:11:19.551Z,8.64
2019-02-08T10:13:57.462Z,8.55
2019-02-08T10:16:44.420Z,7.98
2019-02-08T10:19:16.226Z,8.78
2019-02-08T10:22:02.931Z,9.38
2019-02-08T10:25:03.580Z,9.68
2019-02-08T10:27:50.351Z,9.16
2019-02-08T10:30:55.597Z,9.32
2019-02-08T10:33:30.291Z,9.15
2019-02-08T10:36:35.281Z,9.47
2019-02-08T10:39:36.072Z,8.51
2019-02-08T10:42:42.727Z,8.81
2019-02-08T10:45:47.817Z,8.94
2019-02-08T10:48:52.989Z,9.11
2019-02-08T10:51:33.611Z,9.69
2019-02-08T10:54:25.201Z,10.19
2019-02-08T10:57:15.227Z,10.75
2019-02-08T11:00:03.791Z,10.79
2019-02-08T11:02:50.597Z,9.95
2019-02-08T11:05:56.968Z,9.85
2019-02-08T11:08:53.229Z,10.39
2019-02-08T11:11:50.596Z,10.16
2019-02-08T11:14:34.210Z,10.42
2019-02-08T11:17:22.490Z,10.15
2019-02-08T11:19:57.182Z,9.98
2019-02-08T11:22:25.817Z,9.69
2019-02-08T11:24:54.489Z,9.53
2019-02-08T11:27:23.127Z,9.95
2019-02-08T11:29:51.877Z,9.59
2019-02-08T11:32:20.598Z,9.67
2019-02-08T11:34:49.237Z,10.06
2019-02-08T11:37:17.930Z,10.33
2019-02-08T11:39:46.596Z,10.71
2019-02-08T11:42:15.269Z,10.74
2019-02-08T11:44:43.929Z,11.11
2019-02-08T11:47:12.737Z,11.20
2019-02-08T11:49:41.456Z,10.94
2019-02-08T11:52:10.177Z,10.71
2019-02-08T11:54:38.869Z,11.07
2019-02-08T11:57:07.557Z,11.85
2019-02-08T11:59:36.259Z,11.63
2019-02-08T12:02:05.748Z,10.84
2019-02-08T12:04:34.557Z,10.59
2019-02-08T12:07:03.249Z,10.30
2019-02-08T12:09:31.887Z,10.53
2019-02-08T12:12:00.570Z,10.46
2019-02-08T12:14:30.556Z,10.92
2019-02-08T12:16:59.391Z,10.54
2019-02-08T12:19:28.198Z,10.83
2019-02-08T12:21:56.956Z,10.98
2019-02-08T12:24:25.608Z,10.54
2019-02-08T12:26:54.393Z,10.83
2019-02-08T12:29:23.091Z,10.01
2019-02-08T12:31:51.749Z,9.47
2019-02-08T12:34:20.371Z,9.28
2019-02-08T12:36:49.129Z,9.16
2019-02-08T12:39:17.786Z,9.34
2019-02-08T12:41:46.550Z,9.63
2019-02-08T12:44:15.212Z,9.81
2019-02-08T12:46:43.910Z,9.85
2019-02-08T12:49:12.546Z,10.33
2019-02-08T12:51:41.226Z,11.35
2019-02-08T12:54:09.888Z,12.45
2019-02-08T12:56:45.339Z,12.92
2019-02-08T12:59:08.968Z,12.81
2019-02-08T13:01:38.085Z,13.00
2019-02-08T13:04:06.889Z,12.42
2019-02-08T13:06:35.609Z,11.80
2019-02-08T13:09:05.869Z,11.84
2019-02-08T13:11:34.570Z,11.62
2019-02-08T13:14:03.228Z,11.41
2019-02-08T13:16:31.887Z,11.71
2019-02-08T13:19:00.592Z,12.13
2019-02-08T13:21:29.251Z,11.88
2019-02-08T13:23:58.030Z,12.69
2019-02-08T13:26:26.690Z,13.25
2019-02-08T13:28:55.390Z,12.64
2019-02-08T13:31:24.109Z,13.12
2019-02-08T13:33:52.849Z,11.95
2019-02-08T13:36:21.528Z,11.85
2019-02-08T13:38:50.168Z,11.53
2019-02-08T13:41:18.854Z,11.75
2019-02-08T13:43:47.528Z,11.00
2019-02-08T13:46:16.211Z,11.06
2019-02-08T13:48:44.887Z,10.74
2019-02-08T13:51:13.549Z,11.49
2019-02-08T13:53:42.228Z,11.65
2019-02-08T13:56:10.949Z,12.20
2019-02-08T13:58:39.628Z,12.35
2019-02-08T14:01:08.288Z,12.09
2019-02-08T14:03:37.015Z,11.36
2019-02-08T14:06:06.682Z,11.38
2019-02-08T14:08:35.410Z,11.69
2019-02-08T14:11:04.088Z,12.08
2019-02-08T14:13:40.236Z,11.81
2019-02-08T14:16:03.232Z,11.70
2019-02-08T14:18:31.910Z,10.93
2019-02-08T14:21:00.569Z,11.73
2019-02-08T14:23:29.269Z,11.34
2019-02-08T14:25:57.988Z,11.50
2019-02-08T14:28:26.739Z,11.79
2019-02-08T14:30:55.564Z,11.96
2019-02-08T14:33:24.414Z,12.52
2019-02-08T14:35:53.122Z,12.21
2019-02-08T14:38:21.966Z,12.48
2019-02-08T14:40:50.768Z,12.35
2019-02-08T14:43:19.527Z,12.41
2019-02-08T14:45:48.212Z,13.25
2019-02-08T14:48:16.977Z,13.60
2019-02-08T14:50:45.726Z,13.43
2019-02-08T14:53:14.447Z,11.97
2019-02-08T14:55:43.164Z,10.52
2019-02-08T14:58:11.923Z,9.61
2019-02-08T15:00:40.652Z,9.11
2019-02-08T15:03:09.442Z,9.05
2019-02-08T15:05:38.204Z,9.51
2019-02-08T15:08:07.003Z,10.34
2019-02-08T15:10:39.009Z,11.28
2019-02-08T15:13:07.738Z,11.99
2019-02-08T15:15:36.483Z,12.22
2019-02-08T15:18:05.924Z,11.77
2019-02-08T15:20:36.932Z,11.77
2019-02-08T15:23:06.243Z,11.04
2019-02-08T15:25:35.046Z,10.92
2019-02-08T15:28:03.743Z,10.63
2019-02-08T15:30:34.409Z,10.24
2019-02-08T15:33:03.124Z,9.88
2019-02-08T15:35:32.022Z,9.51
2019-02-08T15:38:01.442Z,9.34
2019-02-08T15:40:38.804Z,9.15
2019-02-08T15:43:08.683Z,8.99
2019-02-08T15:45:37.884Z,8.67
2019-02-08T15:48:06.616Z,8.25
2019-02-08T15:50:35.412Z,7.72
2019-02-08T15:53:04.243Z,7.40
2019-02-08T15:55:42.523Z,7.14
2019-02-08T15:58:12.562Z,6.71
2019-02-08T16:00:41.345Z,6.41
2019-02-08T16:03:11.090Z,6.12
2019-02-08T16:05:40.103Z,6.04
2019-02-08T16:08:08.844Z,5.93
2019-02-08T16:10:43.074Z,5.76
2019-02-08T16:13:16.685Z,5.65
2019-02-08T16:15:45.924Z,5.46
2019-02-08T16:18:14.935Z,5.17
2019-02-08T16:20:43.608Z,4.90
2019-02-08T16:23:12.443Z,4.65
2019-02-08T16:25:42.135Z,4.45
2019-02-08T16:28:11.007Z,4.29
2019-02-08T16:30:39.802Z,4.18
2019-02-08T16:33:09.271Z,3.77
2019-02-08T16:35:38.204Z,3.48
2019-02-08T16:38:07.504Z,3.12
2019-02-08T16:40:36.371Z,3.12
2019-02-08T16:43:06.365Z,3.15
2019-02-08T16:45:36.964Z,3.15
2019-02-08T16:48:08.404Z,2.95
2019-02-08T16:50:49.164Z,2.67
2019-02-08T16:53:18.245Z,2.28
2019-02-08T16:55:49.051Z,2.64
2019-02-08T16:58:26.483Z,2.42
2019-02-08T17:00:55.492Z,2.34
2019-02-08T17:03:24.562Z,2.41
2019-02-08T17:06:07.204Z,2.30
2019-02-08T17:08:37.884Z,2.17
2019-02-08T17:11:06.806Z,2.13
2019-02-08T17:13:35.924Z,2.08
2019-02-08T17:16:04.964Z,2.13
2019-02-08T17:18:34.044Z,2.19
2019-02-08T17:21:03.084Z,2.30
2019-02-08T17:23:32.164Z,2.37
2019-02-08T17:26:01.204Z,2.44
2019-02-08T17:28:30.173Z,2.37
2019-02-08T17:30:59.176Z,2.54
2019-02-08T17:33:28.284Z,2.41
2019-02-08T17:35:57.932Z,2.33
2019-02-08T17:38:26.963Z,2.29
2019-02-08T17:40:55.773Z,2.26
2019-02-08T17:43:24.701Z,2.15
2019-02-08T17:45:54.357Z,2.15
2019-02-08T17:48:23.563Z,2.21
2019-02-08T17:50:52.644Z,2.05
2019-02-08T17:53:21.564Z,1.96
2019-02-08T17:55:50.684Z,2.02
2019-02-08T17:58:19.644Z,2.03
2019-02-08T18:00:52.843Z,1.87
2019-02-08T18:03:21.774Z,1.65
2019-02-08T18:05:50.540Z,1.67
2019-02-08T18:08:19.418Z,1.68
2019-02-08T18:10:48.375Z,1.73
2019-02-08T18:13:18.062Z,1.68
2019-02-08T18:15:47.062Z,1.69
2019-02-08T18:18:17.362Z,1.61
2019-02-08T18:20:56.122Z,1.48
2019-02-08T18:23:26.366Z,1.39
2019-02-08T18:25:55.292Z,1.35
2019-02-08T18:28:24.299Z,1.32
2019-02-08T18:30:53.282Z,1.35
2019-02-08T18:33:22.124Z,1.41
2019-02-08T18:35:51.125Z,1.40
2019-02-08T18:38:20.047Z,1.33
2019-02-08T18:40:49.108Z,1.30
2019-02-08T18:43:18.021Z,1.30
2019-02-08T18:45:48.690Z,1.15
2019-02-08T18:48:17.764Z,1.14
2019-02-08T18:50:52.150Z,1.10
2019-02-08T18:53:21.174Z,1.05
2019-02-08T18:55:50.046Z,1.09
2019-02-08T18:58:19.582Z,0.98
2019-02-08T19:00:51.132Z,0.89
2019-02-08T19:03:20.163Z,0.77
2019-02-08T19:05:48.990Z,0.79
2019-02-08T19:08:18.003Z,0.71
2019-02-08T19:10:46.837Z,0.70
2019-02-08T19:13:15.846Z,0.55
2019-02-08T19:15:44.802Z,0.56
2019-02-08T19:18:13.884Z,0.53
2019-02-08T19:20:42.894Z,0.54
2019-02-08T19:23:12.007Z,0.41
2019-02-08T19:25:43.172Z,0.52
2019-02-08T19:28:13.244Z,0.51
2019-02-08T19:30:43.724Z,0.42
2019-02-08T19:33:12.848Z,0.37
2019-02-08T19:35:41.886Z,0.43
2019-02-08T19:38:10.885Z,0.55
2019-02-08T19:40:44.966Z,0.64
2019-02-08T19:43:14.571Z,0.60
2019-02-08T19:45:43.489Z,0.56
2019-02-08T19:48:12.564Z,0.52
2019-02-08T19:50:43.893Z,0.51
2019-02-08T19:53:12.964Z,0.63
2019-02-08T19:55:42.009Z,0.61
2019-02-08T19:58:11.728Z,0.69
2019-02-08T20:00:42.399Z,0.65
2019-02-08T20:03:11.425Z,0.75
2019-02-08T20:05:40.441Z,0.71
2019-02-08T20:08:11.120Z,0.79
2019-02-08T20:10:45.761Z,0.79
2019-02-08T20:13:14.720Z,0.82
2019-02-08T20:15:43.759Z,0.70
2019-02-08T20:18:13.200Z,0.62
2019-02-08T20:20:42.080Z,0.66
2019-02-08T20:23:11.160Z,0.47
2019-02-08T20:25:40.200Z,0.59
2019-02-08T20:28:09.367Z,0.55
2019-02-08T20:30:38.281Z,0.35
2019-02-08T20:33:07.381Z,0.32
2019-02-08T20:35:36.301Z,0.44
2019-02-08T20:38:05.781Z,0.40
2019-02-08T20:40:36.721Z,0.33
2019-02-08T20:43:05.503Z,0.41
2019-02-08T20:45:35.362Z,0.37
2019-02-08T20:48:10.041Z,0.52
2019-02-08T20:50:38.881Z,0.53
2019-02-08T20:53:07.861Z,0.44
2019-02-08T20:55:36.840Z,0.43
2019-02-08T20:58:07.022Z,0.43
2019-02-08T21:00:37.862Z,0.38
2019-02-08T21:03:08.760Z,0.45
2019-02-08T21:05:37.625Z,0.41
2019-02-08T21:08:07.319Z,0.31
2019-02-08T21:10:36.758Z,0.33
2019-02-08T21:13:09.325Z,0.15
2019-02-08T21:15:38.200Z,0.18
2019-02-08T21:18:07.601Z,0.05
2019-02-08T21:20:38.033Z,0.01
2019-02-08T21:23:07.421Z,0.05
2019-02-08T21:25:41.360Z,0.00
2019-02-08T21:28:10.360Z,-0.05
2019-02-08T21:30:39.407Z,-0.11
2019-02-08T21:33:09.942Z,-0.11
2019-02-08T21:35:38.881Z,-0.12
2019-02-08T21:38:08.422Z,-0.22
2019-02-08T21:40:37.299Z,-0.25
2019-02-08T21:43:06.709Z,-0.11
2019-02-08T21:45:38.022Z,-0.08
2019-02-08T21:48:08.324Z,-0.20
2019-02-08T21:50:37.161Z,-0.20
2019-02-08T21:53:06.202Z,-0.25
2019-02-08T21:55:35.205Z,-0.23
2019-02-08T21:58:03.982Z,-0.25
2019-02-08T22:00:35.459Z,-0.30
2019-02-08T22:03:04.819Z,-0.30
2019-02-08T22:05:36.123Z,-0.36
2019-02-08T22:08:04.981Z,-0.30
2019-02-08T22:10:33.780Z,-0.31
2019-02-08T22:13:02.462Z,-0.35
2019-02-08T22:15:39.902Z,-0.36
2019-02-08T22:18:09.580Z,-0.33
2019-02-08T22:20:38.481Z,-0.39
2019-02-08T22:23:07.202Z,-0.45
2019-02-08T22:25:35.901Z,-0.40
2019-02-08T22:28:04.641Z,-0.38
2019-02-08T22:30:33.369Z,-0.27
2019-02-08T22:33:10.589Z,-0.28
2019-02-08T22:35:39.362Z,-0.27
2019-02-08T22:38:09.096Z,-0.36
2019-02-08T22:40:37.984Z,-0.32
2019-02-08T22:43:06.901Z,-0.39
2019-02-08T22:45:42.959Z,-0.38
2019-02-08T22:48:11.598Z,-0.42
2019-02-08T22:50:40.300Z,-0.40
2019-02-08T22:53:09.200Z,-0.43
2019-02-08T22:55:37.981Z,-0.36
2019-02-08T22:58:08.359Z,-0.32
2019-02-08T23:00:44.643Z,-0.35
2019-02-08T23:03:15.462Z,-0.32
2019-02-08T23:05:45.729Z,-0.33
2019-02-08T23:08:14.522Z,-0.25
2019-02-08T23:10:43.202Z,-0.28
2019-02-08T23:13:12.462Z,-0.13
2019-02-08T23:15:41.141Z,-0.06
2019-02-08T23:18:13.441Z,0.05
2019-02-08T23:20:42.145Z,0.01
2019-02-08T23:23:10.781Z,0.11
2019-02-08T23:25:39.481Z,0.23
2019-02-08T23:28:08.141Z,0.23
2019-02-08T23:30:36.819Z,0.20
2019-02-08T23:33:05.764Z,0.25
2019-02-08T23:35:34.463Z,0.24
2019-02-08T23:38:03.120Z,0.33
2019-02-08T23:40:31.922Z,0.36
2019-02-08T23:43:00.719Z,0.32
2019-02-08T23:45:29.404Z,0.32
2019-02-08T23:47:58.062Z,0.34
2019-02-08T23:50:26.841Z,0.28
2019-02-08T23:52:55.505Z,0.30
2019-02-08T23:55:25.120Z,0.31
2019-02-08T23:57:53.779Z,0.34
